sensor_id;sensor_type;location;lat;lon;timestamp;P1;durP1;ratioP1;P2;durP2;ratioP2
32130;SDS011;18639;50.716;7.086;2023-04-06T00:00:29;4.05;;;2.17;;
32130;SDS011;18639;50.716;7.086;2023-04-06T00:02:54;4.20;;;2.13;;
32130;SDS011;18639;50.716;7.086;2023-04-06T00:05:20;5.53;;;2.15;;
32130;SDS011;18639;50.716;7.086;2023-04-06T00:07:46;5.35;;;2.17;;
32130;SDS011;18639;50.716;7.086;2023-04-06T00:10:12;6.55;;;2.22;;
32130;SDS011;18639;50.716;7.086;2023-04-06T00:12:37;4.80;;;1.83;;
32130;SDS011;18639;50.716;7.086;2023-04-06T00:15:02;5.68;;;1.88;;
32130;SDS011;18639;50.716;7.086;2023-04-06T00:17:30;5.38;;;2.22;;
32130;SDS011;18639;50.716;7.086;2023-04-06T00:19:55;5.47;;;2.08;;
32130;SDS011;18639;50.716;7.086;2023-04-06T00:22:20;5.63;;;1.58;;
32130;SDS011;18639;50.716;7.086;2023-04-06T00:24:46;4.50;;;1.77;;
32130;SDS011;18639;50.716;7.086;2023-04-06T00:27:12;3.33;;;1.42;;
32130;SDS011;18639;50.716;7.086;2023-04-06T00:29:37;3.65;;;1.20;;
32130;SDS011;18639;50.716;7.086;2023-04-06T00:32:03;7.70;;;2.15;;
32130;SDS011;18639;50.716;7.086;2023-04-06T00:34:29;6.03;;;1.80;;
32130;SDS011;18639;50.716;7.086;2023-04-06T00:36:54;3.30;;;1.63;;
32130;SDS011;18639;50.716;7.086;2023-04-06T00:39:19;4.93;;;1.88;;
32130;SDS011;18639;50.716;7.086;2023-04-06T00:41:51;3.30;;;1.50;;
32130;SDS011;18639;50.716;7.086;2023-04-06T00:44:17;5.88;;;1.30;;
32130;SDS011;18639;50.716;7.086;2023-04-06T00:46:43;3.65;;;1.85;;
32130;SDS011;18639;50.716;7.086;2023-04-06T00:49:09;4.30;;;1.83;;
32130;SDS011;18639;50.716;7.086;2023-04-06T00:51:34;5.03;;;1.42;;
32130;SDS011;18639;50.716;7.086;2023-04-06T00:54:00;4.30;;;1.98;;
32130;SDS011;18639;50.716;7.086;2023-04-06T00:56:25;5.38;;;1.98;;
32130;SDS011;18639;50.716;7.086;2023-04-06T00:58:51;2.92;;;1.42;;
32130;SDS011;18639;50.716;7.086;2023-04-06T01:01:16;3.45;;;1.40;;
32130;SDS011;18639;50.716;7.086;2023-04-06T01:03:42;4.05;;;1.45;;
32130;SDS011;18639;50.716;7.086;2023-04-06T01:06:09;1.30;;;1.02;;
32130;SDS011;18639;50.716;7.086;2023-04-06T01:08:34;6.13;;;1.98;;
32130;SDS011;18639;50.716;7.086;2023-04-06T01:11:00;3.00;;;1.73;;
32130;SDS011;18639;50.716;7.086;2023-04-06T01:13:25;3.40;;;1.20;;
32130;SDS011;18639;50.716;7.086;2023-04-06T01:15:51;3.08;;;1.35;;
32130;SDS011;18639;50.716;7.086;2023-04-06T01:18:16;5.35;;;1.55;;
32130;SDS011;18639;50.716;7.086;2023-04-06T01:20:42;3.20;;;1.35;;
32130;SDS011;18639;50.716;7.086;2023-04-06T01:23:07;3.55;;;1.45;;
32130;SDS011;18639;50.716;7.086;2023-04-06T01:25:32;5.40;;;1.58;;
32130;SDS011;18639;50.716;7.086;2023-04-06T01:27:57;6.22;;;1.58;;
32130;SDS011;18639;50.716;7.086;2023-04-06T01:30:23;5.32;;;1.75;;
32130;SDS011;18639;50.716;7.086;2023-04-06T01:32:48;3.80;;;1.23;;
32130;SDS011;18639;50.716;7.086;2023-04-06T01:35:13;3.55;;;1.48;;
32130;SDS011;18639;50.716;7.086;2023-04-06T01:37:39;3.33;;;1.38;;
32130;SDS011;18639;50.716;7.086;2023-04-06T01:40:05;8.43;;;1.38;;
32130;SDS011;18639;50.716;7.086;2023-04-06T01:42:31;4.25;;;1.90;;
32130;SDS011;18639;50.716;7.086;2023-04-06T01:44:56;3.80;;;1.73;;
32130;SDS011;18639;50.716;7.086;2023-04-06T01:47:22;2.83;;;1.33;;
32130;SDS011;18639;50.716;7.086;2023-04-06T01:49:48;3.40;;;1.58;;
32130;SDS011;18639;50.716;7.086;2023-04-06T01:52:13;5.10;;;1.80;;
32130;SDS011;18639;50.716;7.086;2023-04-06T01:54:39;3.67;;;2.03;;
32130;SDS011;18639;50.716;7.086;2023-04-06T01:57:04;2.25;;;1.17;;
32130;SDS011;18639;50.716;7.086;2023-04-06T01:59:29;2.03;;;1.33;;
32130;SDS011;18639;50.716;7.086;2023-04-06T02:01:55;3.80;;;1.42;;
32130;SDS011;18639;50.716;7.086;2023-04-06T02:04:20;4.72;;;1.50;;
32130;SDS011;18639;50.716;7.086;2023-04-06T02:06:46;3.08;;;1.58;;
32130;SDS011;18639;50.716;7.086;2023-04-06T02:09:11;2.90;;;1.17;;
32130;SDS011;18639;50.716;7.086;2023-04-06T02:11:36;3.08;;;1.17;;
32130;SDS011;18639;50.716;7.086;2023-04-06T02:14:02;5.72;;;1.83;;
32130;SDS011;18639;50.716;7.086;2023-04-06T02:16:27;2.40;;;1.40;;
32130;SDS011;18639;50.716;7.086;2023-04-06T02:18:52;5.47;;;1.85;;
32130;SDS011;18639;50.716;7.086;2023-04-06T02:21:17;5.43;;;2.08;;
32130;SDS011;18639;50.716;7.086;2023-04-06T02:23:45;3.85;;;1.63;;
32130;SDS011;18639;50.716;7.086;2023-04-06T02:26:11;1.50;;;0.95;;
32130;SDS011;18639;50.716;7.086;2023-04-06T02:28:37;2.38;;;1.30;;
32130;SDS011;18639;50.716;7.086;2023-04-06T02:31:02;4.65;;;1.52;;
32130;SDS011;18639;50.716;7.086;2023-04-06T02:33:27;3.33;;;1.52;;
32130;SDS011;18639;50.716;7.086;2023-04-06T02:35:52;5.88;;;1.67;;
32130;SDS011;18639;50.716;7.086;2023-04-06T02:38:18;2.72;;;1.38;;
32130;SDS011;18639;50.716;7.086;2023-04-06T02:40:43;2.63;;;1.50;;
32130;SDS011;18639;50.716;7.086;2023-04-06T02:43:08;3.42;;;1.65;;
32130;SDS011;18639;50.716;7.086;2023-04-06T02:45:33;4.25;;;1.77;;
32130;SDS011;18639;50.716;7.086;2023-04-06T02:47:59;4.00;;;1.70;;
32130;SDS011;18639;50.716;7.086;2023-04-06T02:50:24;8.63;;;1.55;;
32130;SDS011;18639;50.716;7.086;2023-04-06T02:52:49;3.50;;;1.73;;
32130;SDS011;18639;50.716;7.086;2023-04-06T02:55:15;4.70;;;1.73;;
32130;SDS011;18639;50.716;7.086;2023-04-06T02:57:40;4.82;;;1.58;;
32130;SDS011;18639;50.716;7.086;2023-04-06T03:00:05;2.28;;;1.30;;
32130;SDS011;18639;50.716;7.086;2023-04-06T03:02:31;4.25;;;1.63;;
32130;SDS011;18639;50.716;7.086;2023-04-06T03:04:57;2.70;;;1.70;;
32130;SDS011;18639;50.716;7.086;2023-04-06T03:07:22;6.25;;;1.73;;
32130;SDS011;18639;50.716;7.086;2023-04-06T03:09:47;3.78;;;1.45;;
32130;SDS011;18639;50.716;7.086;2023-04-06T03:12:12;3.45;;;1.52;;
32130;SDS011;18639;50.716;7.086;2023-04-06T03:14:38;2.30;;;1.35;;
32130;SDS011;18639;50.716;7.086;2023-04-06T03:17:03;3.97;;;1.65;;
32130;SDS011;18639;50.716;7.086;2023-04-06T03:19:28;4.80;;;1.75;;
32130;SDS011;18639;50.716;7.086;2023-04-06T03:21:54;5.47;;;1.13;;
32130;SDS011;18639;50.716;7.086;2023-04-06T03:24:19;5.40;;;1.65;;
32130;SDS011;18639;50.716;7.086;2023-04-06T03:26:45;2.80;;;1.42;;
32130;SDS011;18639;50.716;7.086;2023-04-06T03:29:10;2.97;;;1.42;;
32130;SDS011;18639;50.716;7.086;2023-04-06T03:31:35;5.45;;;1.73;;
32130;SDS011;18639;50.716;7.086;2023-04-06T03:34:00;5.38;;;1.60;;
32130;SDS011;18639;50.716;7.086;2023-04-06T03:36:26;4.45;;;1.35;;
32130;SDS011;18639;50.716;7.086;2023-04-06T03:38:52;5.15;;;2.03;;
32130;SDS011;18639;50.716;7.086;2023-04-06T03:41:18;3.97;;;1.73;;
32130;SDS011;18639;50.716;7.086;2023-04-06T03:43:44;7.28;;;2.17;;
32130;SDS011;18639;50.716;7.086;2023-04-06T03:46:10;4.97;;;1.40;;
32130;SDS011;18639;50.716;7.086;2023-04-06T03:48:35;3.50;;;1.70;;
32130;SDS011;18639;50.716;7.086;2023-04-06T03:51:01;4.05;;;1.85;;
32130;SDS011;18639;50.716;7.086;2023-04-06T03:53:26;5.25;;;1.98;;
32130;SDS011;18639;50.716;7.086;2023-04-06T03:55:51;1.83;;;0.88;;
32130;SDS011;18639;50.716;7.086;2023-04-06T03:58:17;3.90;;;1.77;;
32130;SDS011;18639;50.716;7.086;2023-04-06T04:00:42;3.58;;;1.67;;
32130;SDS011;18639;50.716;7.086;2023-04-06T04:03:07;3.22;;;1.25;;
32130;SDS011;18639;50.716;7.086;2023-04-06T04:05:32;4.63;;;1.48;;
32130;SDS011;18639;50.716;7.086;2023-04-06T04:07:58;1.10;;;1.00;;
32130;SDS011;18639;50.716;7.086;2023-04-06T04:10:23;3.80;;;1.42;;
32130;SDS011;18639;50.716;7.086;2023-04-06T04:12:48;2.30;;;1.30;;
32130;SDS011;18639;50.716;7.086;2023-04-06T04:15:13;2.90;;;1.23;;
32130;SDS011;18639;50.716;7.086;2023-04-06T04:17:39;3.28;;;1.35;;
32130;SDS011;18639;50.716;7.086;2023-04-06T04:20:04;3.55;;;1.73;;
32130;SDS011;18639;50.716;7.086;2023-04-06T04:22:30;2.22;;;1.33;;
32130;SDS011;18639;50.716;7.086;2023-04-06T04:24:56;3.47;;;1.35;;
32130;SDS011;18639;50.716;7.086;2023-04-06T04:27:21;2.65;;;1.27;;
32130;SDS011;18639;50.716;7.086;2023-04-06T04:29:47;4.93;;;1.70;;
32130;SDS011;18639;50.716;7.086;2023-04-06T04:32:12;4.55;;;1.65;;
32130;SDS011;18639;50.716;7.086;2023-04-06T04:34:38;3.28;;;1.02;;
32130;SDS011;18639;50.716;7.086;2023-04-06T04:37:06;2.08;;;0.93;;
32130;SDS011;18639;50.716;7.086;2023-04-06T04:39:32;4.63;;;1.60;;
32130;SDS011;18639;50.716;7.086;2023-04-06T04:41:57;6.85;;;1.15;;
32130;SDS011;18639;50.716;7.086;2023-04-06T04:44:22;4.22;;;1.60;;
32130;SDS011;18639;50.716;7.086;2023-04-06T04:46:48;5.07;;;1.98;;
32130;SDS011;18639;50.716;7.086;2023-04-06T04:49:13;3.08;;;1.27;;
32130;SDS011;18639;50.716;7.086;2023-04-06T04:51:38;2.88;;;1.27;;
32130;SDS011;18639;50.716;7.086;2023-04-06T04:54:03;3.25;;;1.55;;
32130;SDS011;18639;50.716;7.086;2023-04-06T04:56:29;4.05;;;1.58;;
32130;SDS011;18639;50.716;7.086;2023-04-06T04:58:54;3.03;;;1.52;;
32130;SDS011;18639;50.716;7.086;2023-04-06T05:01:19;5.57;;;1.63;;
32130;SDS011;18639;50.716;7.086;2023-04-06T05:03:45;4.18;;;1.10;;
32130;SDS011;18639;50.716;7.086;2023-04-06T05:06:10;12.15;;;1.80;;
32130;SDS011;18639;50.716;7.086;2023-04-06T05:08:35;3.63;;;1.38;;
32130;SDS011;18639;50.716;7.086;2023-04-06T05:11:01;4.38;;;2.00;;
32130;SDS011;18639;50.716;7.086;2023-04-06T05:13:26;4.75;;;1.48;;
32130;SDS011;18639;50.716;7.086;2023-04-06T05:15:51;3.17;;;1.10;;
32130;SDS011;18639;50.716;7.086;2023-04-06T05:18:17;4.40;;;2.13;;
32130;SDS011;18639;50.716;7.086;2023-04-06T05:20:42;6.47;;;1.88;;
32130;SDS011;18639;50.716;7.086;2023-04-06T05:23:07;4.88;;;1.75;;
32130;SDS011;18639;50.716;7.086;2023-04-06T05:25:33;5.43;;;1.90;;
32130;SDS011;18639;50.716;7.086;2023-04-06T05:27:58;2.90;;;1.55;;
32130;SDS011;18639;50.716;7.086;2023-04-06T05:30:24;5.20;;;1.83;;
32130;SDS011;18639;50.716;7.086;2023-04-06T05:32:49;2.92;;;1.60;;
32130;SDS011;18639;50.716;7.086;2023-04-06T05:35:15;4.30;;;1.80;;
32130;SDS011;18639;50.716;7.086;2023-04-06T05:37:42;4.65;;;1.50;;
32130;SDS011;18639;50.716;7.086;2023-04-06T05:40:07;3.10;;;1.58;;
32130;SDS011;18639;50.716;7.086;2023-04-06T05:42:40;4.38;;;1.65;;
32130;SDS011;18639;50.716;7.086;2023-04-06T05:45:07;4.18;;;1.25;;
32130;SDS011;18639;50.716;7.086;2023-04-06T05:47:34;3.53;;;1.60;;
32130;SDS011;18639;50.716;7.086;2023-04-06T05:50:00;2.30;;;1.40;;
32130;SDS011;18639;50.716;7.086;2023-04-06T05:52:25;5.88;;;1.40;;
32130;SDS011;18639;50.716;7.086;2023-04-06T05:54:50;5.38;;;1.65;;
32130;SDS011;18639;50.716;7.086;2023-04-06T05:57:16;3.40;;;1.65;;
32130;SDS011;18639;50.716;7.086;2023-04-06T05:59:41;4.20;;;1.70;;
32130;SDS011;18639;50.716;7.086;2023-04-06T06:02:07;4.55;;;1.83;;
32130;SDS011;18639;50.716;7.086;2023-04-06T06:04:32;3.50;;;1.67;;
32130;SDS011;18639;50.716;7.086;2023-04-06T06:06:57;3.40;;;1.45;;
32130;SDS011;18639;50.716;7.086;2023-04-06T06:09:23;7.35;;;1.90;;
32130;SDS011;18639;50.716;7.086;2023-04-06T06:11:48;3.55;;;1.50;;
32130;SDS011;18639;50.716;7.086;2023-04-06T06:14:13;3.28;;;1.55;;
32130;SDS011;18639;50.716;7.086;2023-04-06T06:16:39;2.72;;;1.45;;
32130;SDS011;18639;50.716;7.086;2023-04-06T06:19:04;3.28;;;1.23;;
32130;SDS011;18639;50.716;7.086;2023-04-06T06:21:29;4.68;;;1.80;;
32130;SDS011;18639;50.716;7.086;2023-04-06T06:23:56;7.95;;;1.27;;
32130;SDS011;18639;50.716;7.086;2023-04-06T06:26:21;2.40;;;1.40;;
32130;SDS011;18639;50.716;7.086;2023-04-06T06:28:46;6.75;;;1.90;;
32130;SDS011;18639;50.716;7.086;2023-04-06T06:31:12;6.57;;;1.83;;
32130;SDS011;18639;50.716;7.086;2023-04-06T06:33:37;4.13;;;1.75;;
32130;SDS011;18639;50.716;7.086;2023-04-06T06:36:02;5.20;;;1.60;;
32130;SDS011;18639;50.716;7.086;2023-04-06T06:38:28;5.10;;;1.73;;
32130;SDS011;18639;50.716;7.086;2023-04-06T06:40:53;4.88;;;1.60;;
32130;SDS011;18639;50.716;7.086;2023-04-06T06:43:18;4.50;;;2.20;;
32130;SDS011;18639;50.716;7.086;2023-04-06T06:45:44;3.30;;;2.00;;
32130;SDS011;18639;50.716;7.086;2023-04-06T06:48:09;4.57;;;1.63;;
32130;SDS011;18639;50.716;7.086;2023-04-06T06:50:35;6.15;;;2.00;;
32130;SDS011;18639;50.716;7.086;2023-04-06T06:53:00;5.43;;;1.90;;
32130;SDS011;18639;50.716;7.086;2023-04-06T06:55:25;3.67;;;1.77;;
32130;SDS011;18639;50.716;7.086;2023-04-06T06:57:51;5.20;;;2.53;;
32130;SDS011;18639;50.716;7.086;2023-04-06T07:00:17;5.38;;;2.15;;
32130;SDS011;18639;50.716;7.086;2023-04-06T07:02:43;4.82;;;1.95;;
32130;SDS011;18639;50.716;7.086;2023-04-06T07:05:08;5.38;;;2.50;;
32130;SDS011;18639;50.716;7.086;2023-04-06T07:07:33;4.68;;;1.70;;
32130;SDS011;18639;50.716;7.086;2023-04-06T07:09:59;4.65;;;2.15;;
32130;SDS011;18639;50.716;7.086;2023-04-06T07:12:25;6.93;;;2.00;;
32130;SDS011;18639;50.716;7.086;2023-04-06T07:14:50;5.07;;;2.45;;
32130;SDS011;18639;50.716;7.086;2023-04-06T07:17:16;3.70;;;1.92;;
32130;SDS011;18639;50.716;7.086;2023-04-06T07:19:41;3.35;;;1.85;;
32130;SDS011;18639;50.716;7.086;2023-04-06T07:22:06;5.97;;;2.35;;
32130;SDS011;18639;50.716;7.086;2023-04-06T07:24:32;8.50;;;2.50;;
32130;SDS011;18639;50.716;7.086;2023-04-06T07:26:58;4.15;;;2.25;;
32130;SDS011;18639;50.716;7.086;2023-04-06T07:29:23;6.90;;;2.42;;
32130;SDS011;18639;50.716;7.086;2023-04-06T07:31:49;8.93;;;2.50;;
32130;SDS011;18639;50.716;7.086;2023-04-06T07:34:14;5.97;;;2.35;;
32130;SDS011;18639;50.716;7.086;2023-04-06T07:36:39;4.13;;;1.98;;
32130;SDS011;18639;50.716;7.086;2023-04-06T07:39:05;3.92;;;2.15;;
32130;SDS011;18639;50.716;7.086;2023-04-06T07:41:30;5.65;;;2.47;;
32130;SDS011;18639;50.716;7.086;2023-04-06T07:43:56;4.70;;;1.92;;
32130;SDS011;18639;50.716;7.086;2023-04-06T07:46:21;6.53;;;2.58;;
32130;SDS011;18639;50.716;7.086;2023-04-06T07:48:46;5.85;;;2.50;;
32130;SDS011;18639;50.716;7.086;2023-04-06T07:51:11;6.05;;;2.35;;
32130;SDS011;18639;50.716;7.086;2023-04-06T07:53:39;5.43;;;2.25;;
32130;SDS011;18639;50.716;7.086;2023-04-06T07:56:04;4.25;;;2.00;;
32130;SDS011;18639;50.716;7.086;2023-04-06T07:58:30;6.75;;;2.35;;
32130;SDS011;18639;50.716;7.086;2023-04-06T08:00:55;6.32;;;2.30;;
32130;SDS011;18639;50.716;7.086;2023-04-06T08:03:22;6.80;;;2.08;;
32130;SDS011;18639;50.716;7.086;2023-04-06T08:05:50;5.18;;;2.30;;
32130;SDS011;18639;50.716;7.086;2023-04-06T08:08:16;6.43;;;2.38;;
32130;SDS011;18639;50.716;7.086;2023-04-06T08:10:41;5.95;;;2.33;;
32130;SDS011;18639;50.716;7.086;2023-04-06T08:13:06;5.05;;;2.63;;
32130;SDS011;18639;50.716;7.086;2023-04-06T08:15:33;8.60;;;2.60;;
32130;SDS011;18639;50.716;7.086;2023-04-06T08:17:58;6.63;;;2.50;;
32130;SDS011;18639;50.716;7.086;2023-04-06T08:20:23;6.75;;;2.50;;
32130;SDS011;18639;50.716;7.086;2023-04-06T08:22:49;6.43;;;2.50;;
32130;SDS011;18639;50.716;7.086;2023-04-06T08:25:14;8.90;;;3.17;;
32130;SDS011;18639;50.716;7.086;2023-04-06T08:27:39;7.95;;;2.72;;
32130;SDS011;18639;50.716;7.086;2023-04-06T08:30:05;6.57;;;2.25;;
32130;SDS011;18639;50.716;7.086;2023-04-06T08:32:31;4.72;;;1.95;;
32130;SDS011;18639;50.716;7.086;2023-04-06T08:34:56;8.98;;;2.47;;
32130;SDS011;18639;50.716;7.086;2023-04-06T08:37:21;6.68;;;2.58;;
32130;SDS011;18639;50.716;7.086;2023-04-06T08:39:47;6.35;;;2.80;;
32130;SDS011;18639;50.716;7.086;2023-04-06T08:42:16;6.60;;;2.25;;
32130;SDS011;18639;50.716;7.086;2023-04-06T08:44:45;6.22;;;2.33;;
32130;SDS011;18639;50.716;7.086;2023-04-06T08:47:12;4.88;;;2.20;;
32130;SDS011;18639;50.716;7.086;2023-04-06T08:49:37;6.00;;;2.28;;
32130;SDS011;18639;50.716;7.086;2023-04-06T08:52:05;7.18;;;3.08;;
32130;SDS011;18639;50.716;7.086;2023-04-06T08:54:32;7.53;;;2.85;;
32130;SDS011;18639;50.716;7.086;2023-04-06T08:56:58;7.32;;;2.75;;
32130;SDS011;18639;50.716;7.086;2023-04-06T08:59:24;5.95;;;2.78;;
32130;SDS011;18639;50.716;7.086;2023-04-06T09:01:50;5.32;;;2.60;;
32130;SDS011;18639;50.716;7.086;2023-04-06T09:04:17;5.50;;;2.20;;
32130;SDS011;18639;50.716;7.086;2023-04-06T09:06:43;6.18;;;2.65;;
32130;SDS011;18639;50.716;7.086;2023-04-06T09:09:08;8.32;;;2.85;;
32130;SDS011;18639;50.716;7.086;2023-04-06T09:11:43;6.00;;;2.50;;
32130;SDS011;18639;50.716;7.086;2023-04-06T09:14:14;7.60;;;2.72;;
32130;SDS011;18639;50.716;7.086;2023-04-06T09:16:44;5.32;;;2.28;;
32130;SDS011;18639;50.716;7.086;2023-04-06T09:19:11;5.75;;;2.47;;
32130;SDS011;18639;50.716;7.086;2023-04-06T09:21:37;6.05;;;2.33;;
32130;SDS011;18639;50.716;7.086;2023-04-06T09:24:05;6.32;;;2.75;;
32130;SDS011;18639;50.716;7.086;2023-04-06T09:26:32;4.78;;;2.38;;
32130;SDS011;18639;50.716;7.086;2023-04-06T09:28:58;8.18;;;2.22;;
32130;SDS011;18639;50.716;7.086;2023-04-06T09:31:30;7.18;;;2.63;;
32130;SDS011;18639;50.716;7.086;2023-04-06T09:33:57;4.43;;;2.20;;
32130;SDS011;18639;50.716;7.086;2023-04-06T09:36:33;7.00;;;2.40;;
32130;SDS011;18639;50.716;7.086;2023-04-06T09:39:01;7.30;;;2.30;;
32130;SDS011;18639;50.716;7.086;2023-04-06T09:41:28;6.05;;;2.25;;
32130;SDS011;18639;50.716;7.086;2023-04-06T09:44:01;6.22;;;1.98;;
32130;SDS011;18639;50.716;7.086;2023-04-06T09:46:32;5.65;;;2.17;;
32130;SDS011;18639;50.716;7.086;2023-04-06T09:49:00;5.40;;;2.08;;
32130;SDS011;18639;50.716;7.086;2023-04-06T09:51:27;5.50;;;2.20;;
32130;SDS011;18639;50.716;7.086;2023-04-06T09:53:56;6.72;;;2.80;;
32130;SDS011;18639;50.716;7.086;2023-04-06T09:56:26;6.97;;;2.55;;
32130;SDS011;18639;50.716;7.086;2023-04-06T09:58:53;6.50;;;2.38;;
32130;SDS011;18639;50.716;7.086;2023-04-06T10:01:26;4.55;;;2.13;;
32130;SDS011;18639;50.716;7.086;2023-04-06T10:06:28;6.53;;;2.38;;
32130;SDS011;18639;50.716;7.086;2023-04-06T10:08:58;9.35;;;3.10;;
32130;SDS011;18639;50.716;7.086;2023-04-06T10:11:26;6.93;;;2.55;;
32130;SDS011;18639;50.716;7.086;2023-04-06T10:13:51;10.43;;;2.50;;
32130;SDS011;18639;50.716;7.086;2023-04-06T10:16:17;7.60;;;2.50;;
32130;SDS011;18639;50.716;7.086;2023-04-06T10:18:44;5.95;;;2.58;;
32130;SDS011;18639;50.716;7.086;2023-04-06T10:21:16;6.15;;;2.47;;
32130;SDS011;18639;50.716;7.086;2023-04-06T10:23:49;7.53;;;2.83;;
32130;SDS011;18639;50.716;7.086;2023-04-06T10:26:17;7.18;;;2.50;;
32130;SDS011;18639;50.716;7.086;2023-04-06T10:28:45;5.53;;;2.38;;
32130;SDS011;18639;50.716;7.086;2023-04-06T10:31:12;6.07;;;2.30;;
32130;SDS011;18639;50.716;7.086;2023-04-06T10:33:38;5.47;;;2.10;;
32130;SDS011;18639;50.716;7.086;2023-04-06T10:36:10;5.03;;;2.17;;
32130;SDS011;18639;50.716;7.086;2023-04-06T10:38:40;7.53;;;2.30;;
32130;SDS011;18639;50.716;7.086;2023-04-06T10:41:06;7.63;;;2.75;;
32130;SDS011;18639;50.716;7.086;2023-04-06T10:43:37;4.68;;;2.30;;
32130;SDS011;18639;50.716;7.086;2023-04-06T10:46:04;6.90;;;2.60;;
32130;SDS011;18639;50.716;7.086;2023-04-06T10:48:40;6.88;;;2.70;;
32130;SDS011;18639;50.716;7.086;2023-04-06T10:51:10;5.68;;;2.55;;
32130;SDS011;18639;50.716;7.086;2023-04-06T10:53:35;7.85;;;2.85;;
32130;SDS011;18639;50.716;7.086;2023-04-06T10:56:00;7.60;;;2.67;;
32130;SDS011;18639;50.716;7.086;2023-04-06T10:58:27;8.55;;;2.60;;
32130;SDS011;18639;50.716;7.086;2023-04-06T11:00:54;8.27;;;3.15;;
32130;SDS011;18639;50.716;7.086;2023-04-06T11:03:20;6.57;;;2.72;;
32130;SDS011;18639;50.716;7.086;2023-04-06T11:05:46;7.40;;;2.53;;
32130;SDS011;18639;50.716;7.086;2023-04-06T11:08:29;6.68;;;2.65;;
32130;SDS011;18639;50.716;7.086;2023-04-06T11:11:11;5.55;;;2.33;;
32130;SDS011;18639;50.716;7.086;2023-04-06T11:13:50;9.07;;;2.65;;
32130;SDS011;18639;50.716;7.086;2023-04-06T11:16:27;6.38;;;2.67;;
32130;SDS011;18639;50.716;7.086;2023-04-06T11:18:55;8.75;;;2.40;;
32130;SDS011;18639;50.716;7.086;2023-04-06T11:21:32;10.82;;;3.20;;
32130;SDS011;18639;50.716;7.086;2023-04-06T11:26:41;9.05;;;3.42;;
32130;SDS011;18639;50.716;7.086;2023-04-06T11:29:06;7.22;;;2.33;;
32130;SDS011;18639;50.716;7.086;2023-04-06T11:31:37;8.77;;;2.92;;
32130;SDS011;18639;50.716;7.086;2023-04-06T11:34:08;6.22;;;2.78;;
32130;SDS011;18639;50.716;7.086;2023-04-06T11:36:34;9.38;;;2.60;;
32130;SDS011;18639;50.716;7.086;2023-04-06T11:39:00;7.65;;;2.78;;
32130;SDS011;18639;50.716;7.086;2023-04-06T11:41:28;7.00;;;2.90;;
32130;SDS011;18639;50.716;7.086;2023-04-06T11:43:54;6.00;;;2.60;;
32130;SDS011;18639;50.716;7.086;2023-04-06T11:46:20;5.38;;;2.47;;
32130;SDS011;18639;50.716;7.086;2023-04-06T11:48:45;4.40;;;2.22;;
32130;SDS011;18639;50.716;7.086;2023-04-06T11:51:11;6.22;;;2.70;;
32130;SDS011;18639;50.716;7.086;2023-04-06T11:53:43;7.70;;;2.88;;
32130;SDS011;18639;50.716;7.086;2023-04-06T11:56:10;9.07;;;2.92;;
32130;SDS011;18639;50.716;7.086;2023-04-06T11:58:36;6.35;;;2.25;;
32130;SDS011;18639;50.716;7.086;2023-04-06T12:01:04;8.15;;;2.75;;
32130;SDS011;18639;50.716;7.086;2023-04-06T12:03:30;7.72;;;2.75;;
32130;SDS011;18639;50.716;7.086;2023-04-06T12:05:55;7.43;;;2.47;;
32130;SDS011;18639;50.716;7.086;2023-04-06T12:08:20;6.70;;;2.50;;
32130;SDS011;18639;50.716;7.086;2023-04-06T12:10:50;8.07;;;3.03;;
32130;SDS011;18639;50.716;7.086;2023-04-06T12:13:15;7.75;;;2.75;;
32130;SDS011;18639;50.716;7.086;2023-04-06T12:15:40;8.57;;;2.47;;
32130;SDS011;18639;50.716;7.086;2023-04-06T12:18:06;7.35;;;2.30;;
32130;SDS011;18639;50.716;7.086;2023-04-06T12:20:31;6.95;;;2.50;;
32130;SDS011;18639;50.716;7.086;2023-04-06T12:22:56;5.10;;;2.42;;
32130;SDS011;18639;50.716;7.086;2023-04-06T12:25:21;6.55;;;2.33;;
32130;SDS011;18639;50.716;7.086;2023-04-06T12:27:47;6.68;;;2.47;;
32130;SDS011;18639;50.716;7.086;2023-04-06T12:30:12;6.00;;;2.13;;
32130;SDS011;18639;50.716;7.086;2023-04-06T12:32:38;4.65;;;2.10;;
32130;SDS011;18639;50.716;7.086;2023-04-06T12:35:03;4.43;;;1.80;;
32130;SDS011;18639;50.716;7.086;2023-04-06T12:37:28;4.78;;;2.10;;
32130;SDS011;18639;50.716;7.086;2023-04-06T12:39:54;4.95;;;1.65;;
32130;SDS011;18639;50.716;7.086;2023-04-06T12:42:19;3.58;;;1.50;;
32130;SDS011;18639;50.716;7.086;2023-04-06T12:44:45;5.20;;;2.28;;
32130;SDS011;18639;50.716;7.086;2023-04-06T12:47:12;4.50;;;2.03;;
32130;SDS011;18639;50.716;7.086;2023-04-06T12:49:37;3.60;;;1.55;;
32130;SDS011;18639;50.716;7.086;2023-04-06T12:52:02;6.55;;;1.98;;
32130;SDS011;18639;50.716;7.086;2023-04-06T12:54:28;4.13;;;1.80;;
32130;SDS011;18639;50.716;7.086;2023-04-06T12:56:53;3.13;;;1.58;;
32130;SDS011;18639;50.716;7.086;2023-04-06T12:59:18;5.25;;;2.15;;
32130;SDS011;18639;50.716;7.086;2023-04-06T13:01:45;5.10;;;1.70;;
32130;SDS011;18639;50.716;7.086;2023-04-06T13:04:11;5.00;;;2.17;;
32130;SDS011;18639;50.716;7.086;2023-04-06T13:06:36;4.78;;;2.03;;
32130;SDS011;18639;50.716;7.086;2023-04-06T13:09:01;4.32;;;1.70;;
32130;SDS011;18639;50.716;7.086;2023-04-06T13:11:28;4.45;;;1.90;;
32130;SDS011;18639;50.716;7.086;2023-04-06T13:13:54;4.82;;;1.95;;
32130;SDS011;18639;50.716;7.086;2023-04-06T13:16:20;6.18;;;2.10;;
32130;SDS011;18639;50.716;7.086;2023-04-06T13:18:45;3.35;;;1.63;;
32130;SDS011;18639;50.716;7.086;2023-04-06T13:21:13;3.70;;;1.55;;
32130;SDS011;18639;50.716;7.086;2023-04-06T13:23:40;3.25;;;1.48;;
32130;SDS011;18639;50.716;7.086;2023-04-06T13:26:06;3.10;;;1.42;;
32130;SDS011;18639;50.716;7.086;2023-04-06T13:28:32;3.55;;;1.40;;
32130;SDS011;18639;50.716;7.086;2023-04-06T13:31:00;2.63;;;1.25;;
32130;SDS011;18639;50.716;7.086;2023-04-06T13:33:27;4.43;;;1.60;;
32130;SDS011;18639;50.716;7.086;2023-04-06T13:35:53;4.03;;;1.60;;
32130;SDS011;18639;50.716;7.086;2023-04-06T13:38:18;3.45;;;1.77;;
32130;SDS011;18639;50.716;7.086;2023-04-06T13:40:44;4.85;;;1.63;;
32130;SDS011;18639;50.716;7.086;2023-04-06T13:43:10;3.40;;;1.50;;
32130;SDS011;18639;50.716;7.086;2023-04-06T13:45:36;2.88;;;1.48;;
32130;SDS011;18639;50.716;7.086;2023-04-06T13:48:03;3.58;;;1.55;;
32130;SDS011;18639;50.716;7.086;2023-04-06T13:50:28;4.75;;;2.10;;
32130;SDS011;18639;50.716;7.086;2023-04-06T13:52:54;6.05;;;2.28;;
32130;SDS011;18639;50.716;7.086;2023-04-06T13:55:20;4.40;;;1.90;;
32130;SDS011;18639;50.716;7.086;2023-04-06T13:57:46;3.53;;;1.70;;
32130;SDS011;18639;50.716;7.086;2023-04-06T14:00:11;4.13;;;1.65;;
32130;SDS011;18639;50.716;7.086;2023-04-06T14:02:38;4.97;;;1.83;;
32130;SDS011;18639;50.716;7.086;2023-04-06T14:05:04;2.83;;;1.52;;
32130;SDS011;18639;50.716;7.086;2023-04-06T14:07:30;2.90;;;1.55;;
32130;SDS011;18639;50.716;7.086;2023-04-06T14:09:55;3.63;;;1.70;;
32130;SDS011;18639;50.716;7.086;2023-04-06T14:12:24;3.38;;;1.65;;
32130;SDS011;18639;50.716;7.086;2023-04-06T14:14:50;5.25;;;2.05;;
32130;SDS011;18639;50.716;7.086;2023-04-06T14:17:15;5.57;;;2.38;;
32130;SDS011;18639;50.716;7.086;2023-04-06T14:19:41;5.18;;;1.92;;
32130;SDS011;18639;50.716;7.086;2023-04-06T14:22:08;4.70;;;2.05;;
32130;SDS011;18639;50.716;7.086;2023-04-06T14:24:33;5.20;;;2.10;;
32130;SDS011;18639;50.716;7.086;2023-04-06T14:27:00;5.85;;;1.92;;
32130;SDS011;18639;50.716;7.086;2023-04-06T14:29:27;7.80;;;1.98;;
32130;SDS011;18639;50.716;7.086;2023-04-06T14:31:53;3.90;;;2.05;;
32130;SDS011;18639;50.716;7.086;2023-04-06T14:34:24;6.45;;;2.38;;
32130;SDS011;18639;50.716;7.086;2023-04-06T14:36:50;4.05;;;1.85;;
32130;SDS011;18639;50.716;7.086;2023-04-06T14:39:16;7.80;;;2.17;;
32130;SDS011;18639;50.716;7.086;2023-04-06T14:41:41;3.53;;;1.92;;
32130;SDS011;18639;50.716;7.086;2023-04-06T14:44:07;5.72;;;2.05;;
32130;SDS011;18639;50.716;7.086;2023-04-06T14:46:37;8.43;;;2.15;;